Airfield :
LOGIN :

Register | Disclaimer

   EN    FR    IT 

 










Legend :    VFR   Marginal VFR   IFR   Intensive IFR   Very Intensive IFR
Visi :
Ceiling :
>= 8 km
>= 3000ft
5 to 8 km
1000 to 3000 ft
1500m to 5 km
500 to 1000 ft
800 to 1500m
200 to 500 ft
< 800m
< 200 ft
Symbols :   Thunderstorms  Fog  Heavy snow  Heavy precipitations  Wind > 20 kt
SIGMETs :     Misc.  Thunderstorms  Icing  Turbulence  Mountain Waves  Volcanic Ashes






- Airport Elevation : 1302 ft
- IATA code : GNB


LFLS - Grenoble / St. Geoirs

CURRENT METAR :
  • 301330Z AUTO 33006KT 9999 FEW013 SCT028 BKN034 07/05 Q1017 TEMPO OVC006

EXPIRED METARs :
  • 301300Z AUTO 34007KT 9999 BKN017 OVC023 07/05 Q1017 TEMPO OVC006
  • 301230Z AUTO 34005KT 9999 SCT018 OVC024 07/05 Q1017 TEMPO OVC006
  • 301200Z AUTO 34005KT 9999 BKN013 BKN023 BKN028 07/05 Q1017 TEMPO OVC006
  • 301130Z AUTO 34005KT 9999 FEW012 BKN030 OVC036 07/05 Q1017 TEMPO OVC006
  • 301100Z AUTO 35004KT 9999 SCT010 SCT014 BKN024 07/05 Q1017 TEMPO 2000 BR OVC006

TAF TAF LFLS
Valid from the 30 at 09:00 until the 01 at 09:00 UTC


300800Z 3009/0109 34007KT 9999 BKN012 OVC030
TEMPO 3009/0109 OVC006
PROB40
TEMPO 3009/3012 2000 BR OVC003
ATIS : +33 4 76 65 55 89



MET'MAP, your aeronautical weather chart ! - Copyright ORBIFLY December 2007 - Disclaimer

ORBIFLY MET'MAP TEAM :

Programming & Development : Alexandra Zaïnal
Original concept : Baudouin d'Aumeries
Technical & hardware support : Manuel Goepfert
Assistance : Marc-Olivier Méhu




SOURCES & CREDITS :

   NOAA